Time;durP1;ratioP1;P1;durP2;ratioP2;P2;SDS_P1;SDS_P2;PMS_P1;PMS_P2;Temp;Humidity;BMP_temperature;BMP_pressure;BME280_temperature;BME280_humidity;BME280_pressure;Samples;Min_cycle;Max_cycle;Signal;HPM_P1;HPM_P2
2023/07/29 00:01:31;;;;;;;11.82;7.32;;;20.70;99.90;;;;;;4989188;23;20231;-87
2023/07/29 00:04:03;;;;;;;11.27;7.07;;;20.70;99.90;;;;;;4975936;23;20220;-87
2023/07/29 00:06:29;;;;;;;9.98;7.20;;;20.70;99.90;;;;;;4918915;29;20214;-92
2023/07/29 00:08:55;;;;;;;10.30;7.28;;;20.60;99.90;;;;;;4925220;29;20215;-92
2023/07/29 00:11:21;;;;;;;9.75;7.45;;;20.60;99.90;;;;;;4929442;29;20199;-90
2023/07/29 00:13:47;;;;;;;10.95;7.80;;;20.60;99.90;;;;;;4908390;29;20248;-93
2023/07/29 00:16:15;;;;;;;12.10;7.28;;;20.60;99.90;;;;;;4915747;29;20197;-92
2023/07/29 00:18:41;;;;;;;12.23;7.88;;;20.60;99.90;;;;;;4918492;29;20216;-92
2023/07/29 00:21:07;;;;;;;10.35;7.85;;;20.60;99.90;;;;;;4915808;29;20211;-88
2023/07/29 00:23:33;;;;;;;11.20;7.35;;;20.60;99.90;;;;;;4915268;29;20192;-93
2023/07/29 00:25:59;;;;;;;12.82;7.43;;;20.60;99.90;;;;;;4912519;29;20247;-92
2023/07/29 00:28:24;;;;;;;10.60;7.60;;;20.60;99.90;;;;;;4917857;29;20236;-91
2023/07/29 00:30:50;;;;;;;13.38;7.53;;;20.50;99.90;;;;;;4914614;29;20202;-90
2023/07/29 00:33:16;;;;;;;11.48;7.65;;;20.50;99.90;;;;;;4912814;29;20219;-91
2023/07/29 00:35:42;;;;;;;10.68;7.55;;;20.50;99.90;;;;;;4933521;29;20231;-89
2023/07/29 00:38:08;;;;;;;11.00;7.50;;;20.50;99.90;;;;;;4919894;29;20215;-91
2023/07/29 00:40:36;;;;;;;10.30;7.60;;;20.50;99.90;;;;;;4919178;29;20216;-90
2023/07/29 00:43:02;;;;;;;10.45;8.10;;;20.50;99.90;;;;;;4919996;29;20184;-92
2023/07/29 00:45:29;;;;;;;11.23;7.88;;;20.50;99.90;;;;;;4924693;29;20280;-91
2023/07/29 00:47:55;;;;;;;10.82;7.57;;;20.50;99.90;;;;;;4924953;29;20192;-88
2023/07/29 00:50:21;;;;;;;11.32;7.90;;;20.50;99.90;;;;;;4925743;29;20636;-89
2023/07/29 00:52:48;;;;;;;11.75;8.07;;;20.50;99.90;;;;;;4931612;29;20176;-90
2023/07/29 00:55:15;;;;;;;10.98;8.23;;;20.50;99.90;;;;;;4925891;29;20180;-89
2023/07/29 00:57:42;;;;;;;9.65;7.38;;;20.50;99.90;;;;;;4927811;29;20290;-88
2023/07/29 01:00:08;;;;;;;9.50;7.75;;;20.40;99.90;;;;;;4925643;29;20192;-91
2023/07/29 01:02:35;;;;;;;12.43;8.25;;;20.50;99.90;;;;;;4924155;29;20290;-90
2023/07/29 01:05:02;;;;;;;12.85;8.88;;;20.50;99.90;;;;;;4925719;29;20206;-85
2023/07/29 01:07:37;;;;;;;11.65;8.40;;;20.50;99.90;;;;;;4921603;29;20187;-87
2023/07/29 01:10:12;;;;;;;11.27;8.82;;;20.40;99.90;;;;;;4919272;29;20188;-91
2023/07/29 01:12:57;;;;;;;12.20;8.70;;;20.40;99.90;;;;;;4921294;29;20342;-90
2023/07/29 01:15:40;;;;;;;11.25;7.93;;;20.40;99.90;;;;;;4921240;29;20180;-89
2023/07/29 01:18:13;;;;;;;12.48;8.75;;;20.40;99.90;;;;;;4921599;29;20223;-90
2023/07/29 01:20:40;;;;;;;11.90;8.52;;;20.30;99.90;;;;;;4924070;29;20188;-90
2023/07/29 01:23:06;;;;;;;12.57;8.30;;;20.40;99.90;;;;;;4921800;29;20247;-91
2023/07/29 01:25:32;;;;;;;11.43;9.00;;;20.40;99.90;;;;;;4926158;29;20200;-89
2023/07/29 01:27:58;;;;;;;12.40;9.07;;;20.30;99.90;;;;;;4935065;29;20196;-90
2023/07/29 01:30:31;;;;;;;10.82;8.75;;;20.30;99.90;;;;;;4930926;29;20188;-90
2023/07/29 01:33:10;;;;;;;12.45;8.35;;;20.30;99.90;;;;;;4933607;29;20189;-90
2023/07/29 01:35:44;;;;;;;12.27;8.57;;;20.30;99.90;;;;;;4918653;29;20200;-91
2023/07/29 01:38:31;;;;;;;13.45;8.95;;;20.20;99.90;;;;;;4930610;29;20203;-89
2023/07/29 01:40:59;;;;;;;13.00;8.77;;;20.20;99.90;;;;;;4936783;29;20192;-87
2023/07/29 01:43:25;;;;;;;12.15;8.48;;;20.20;99.90;;;;;;4929549;29;20188;-92
2023/07/29 01:45:52;;;;;;;11.23;8.80;;;20.10;99.90;;;;;;4928698;29;20197;-91
2023/07/29 01:48:18;;;;;;;11.63;8.35;;;20.10;99.90;;;;;;4936398;29;20179;-89
2023/07/29 01:50:44;;;;;;;13.32;8.80;;;20.10;99.90;;;;;;4934254;29;20206;-91
2023/07/29 01:53:10;;;;;;;12.65;9.02;;;20.00;99.90;;;;;;4939275;29;20192;-91
2023/07/29 01:55:35;;;;;;;10.13;8.18;;;20.00;99.90;;;;;;4918187;29;20645;-90
2023/07/29 01:58:01;;;;;;;13.68;8.95;;;20.00;99.90;;;;;;4917883;29;20220;-92
2023/07/29 02:00:28;;;;;;;14.63;8.95;;;20.00;99.90;;;;;;4928560;29;20291;-90
2023/07/29 02:02:54;;;;;;;11.02;8.88;;;20.00;99.90;;;;;;4923158;29;20271;-90
2023/07/29 02:05:20;;;;;;;12.52;9.00;;;20.00;99.90;;;;;;4902590;29;21371;-87
2023/07/29 02:07:45;;;;;;;10.73;8.63;;;19.90;99.90;;;;;;4915707;29;20610;-90
2023/07/29 02:10:11;;;;;;;11.90;8.13;;;19.90;99.90;;;;;;4919954;29;20644;-89
2023/07/29 02:12:37;;;;;;;11.43;8.50;;;19.90;99.90;;;;;;4922027;29;20561;-91
2023/07/29 02:15:04;;;;;;;12.32;8.48;;;19.90;99.90;;;;;;4919834;29;20192;-91
2023/07/29 02:17:31;;;;;;;14.30;9.20;;;19.80;99.90;;;;;;4917715;29;20271;-90
2023/07/29 02:19:56;;;;;;;12.63;8.93;;;19.80;99.90;;;;;;4920172;29;20194;-90
2023/07/29 02:22:22;;;;;;;13.30;8.63;;;19.80;99.90;;;;;;4907549;29;20188;-91
2023/07/29 02:24:48;;;;;;;14.80;9.13;;;19.80;99.90;;;;;;4918902;29;20196;-89
2023/07/29 02:27:14;;;;;;;12.05;9.38;;;19.70;99.90;;;;;;4917485;29;20199;-91
2023/07/29 02:29:41;;;;;;;12.45;9.00;;;19.80;99.90;;;;;;4919187;29;20260;-91
2023/07/29 02:32:07;;;;;;;14.70;9.40;;;19.70;99.90;;;;;;4914234;29;20279;-90
2023/07/29 02:34:33;;;;;;;10.15;8.40;;;19.70;99.90;;;;;;4919360;29;20208;-90
2023/07/29 02:36:59;;;;;;;14.07;9.10;;;19.70;99.90;;;;;;4918661;29;20263;-92
2023/07/29 02:39:24;;;;;;;12.15;8.52;;;19.70;99.90;;;;;;4919448;29;20192;-91
2023/07/29 02:41:50;;;;;;;13.65;8.90;;;19.70;99.90;;;;;;4915800;29;20241;-90
2023/07/29 02:44:16;;;;;;;13.10;8.80;;;19.60;99.90;;;;;;4919385;29;20172;-90
2023/07/29 02:46:42;;;;;;;15.05;10.07;;;19.60;99.90;;;;;;4937019;29;20197;-89
2023/07/29 02:49:08;;;;;;;12.55;8.88;;;19.60;99.90;;;;;;4932362;29;20184;-89
2023/07/29 02:51:34;;;;;;;11.68;8.82;;;19.60;99.90;;;;;;4905133;29;20200;-92
2023/07/29 02:53:59;;;;;;;14.57;9.10;;;19.50;99.90;;;;;;4915354;29;20196;-92
2023/07/29 02:56:28;;;;;;;13.32;9.40;;;19.50;99.90;;;;;;4914009;29;20277;-90
2023/07/29 02:58:53;;;;;;;13.75;9.35;;;19.50;99.90;;;;;;4914919;29;20291;-91
2023/07/29 03:01:20;;;;;;;13.18;9.55;;;19.50;99.90;;;;;;4915205;29;20218;-91
2023/07/29 03:03:45;;;;;;;13.07;9.25;;;19.40;99.90;;;;;;4914604;29;20235;-93
2023/07/29 03:06:13;;;;;;;12.90;8.98;;;19.40;99.90;;;;;;4915199;29;20224;-92
2023/07/29 03:08:39;;;;;;;13.82;8.80;;;19.30;99.90;;;;;;4896543;29;20200;-92
2023/07/29 03:11:07;;;;;;;14.25;8.95;;;19.40;99.90;;;;;;4918469;29;20601;-90
2023/07/29 03:13:33;;;;;;;14.27;9.00;;;19.40;99.90;;;;;;4913522;29;20567;-91
2023/07/29 03:16:06;;;;;;;14.35;9.43;;;19.30;99.90;;;;;;4913491;29;20256;-92
2023/07/29 03:18:32;;;;;;;12.38;8.32;;;19.30;99.90;;;;;;4912310;29;20227;-91
2023/07/29 03:20:58;;;;;;;12.05;8.32;;;19.30;99.90;;;;;;4911913;29;20297;-92
2023/07/29 03:23:24;;;;;;;12.52;8.88;;;19.30;99.90;;;;;;4896718;29;20270;-92
2023/07/29 03:25:56;;;;;;;15.45;9.10;;;19.30;99.90;;;;;;4911744;29;20192;-93
2023/07/29 03:28:27;;;;;;;14.05;9.70;;;19.30;99.90;;;;;;4916774;29;20235;-92
2023/07/29 03:30:54;;;;;;;15.32;9.65;;;19.20;99.90;;;;;;4916503;29;20199;-90
2023/07/29 03:33:20;;;;;;;12.95;8.38;;;19.20;99.90;;;;;;4901748;29;20184;-90
2023/07/29 03:35:46;;;;;;;15.18;8.52;;;19.20;99.90;;;;;;4917003;29;20190;-91
2023/07/29 03:38:12;;;;;;;15.48;8.90;;;19.20;99.90;;;;;;4915489;29;20216;-91
2023/07/29 03:40:39;;;;;;;9.65;7.60;;;19.10;99.90;;;;;;4920681;29;20199;-91
2023/07/29 03:43:05;;;;;;;14.98;9.00;;;19.10;99.90;;;;;;4916910;29;20203;-91
2023/07/29 03:45:31;;;;;;;12.70;8.15;;;19.10;99.90;;;;;;4917372;29;20192;-87
2023/07/29 03:47:57;;;;;;;12.70;8.20;;;19.10;99.90;;;;;;4916951;29;20200;-92
2023/07/29 03:50:24;;;;;;;10.93;7.78;;;19.10;99.90;;;;;;4901733;29;20194;-92
2023/07/29 03:52:50;;;;;;;10.65;8.02;;;19.10;99.90;;;;;;4912474;29;20219;-91
2023/07/29 03:55:16;;;;;;;13.15;7.75;;;19.00;99.90;;;;;;4915574;29;20549;-91
2023/07/29 03:57:42;;;;;;;13.18;8.73;;;19.00;99.90;;;;;;4917294;29;20204;-92
2023/07/29 04:00:11;;;;;;;12.25;8.15;;;19.00;99.90;;;;;;4908909;29;20666;-91
2023/07/29 04:02:45;;;;;;;11.13;8.02;;;19.00;99.90;;;;;;4929381;29;20719;-92
2023/07/29 04:05:11;;;;;;;11.50;8.40;;;19.00;99.90;;;;;;4916355;29;20264;-92
2023/07/29 04:07:37;;;;;;;12.15;8.05;;;19.00;99.90;;;;;;4911232;29;20184;-91
2023/07/29 04:10:04;;;;;;;13.48;7.75;;;19.00;99.90;;;;;;4928350;29;20192;-92
2023/07/29 04:12:30;;;;;;;12.52;8.27;;;19.00;99.90;;;;;;4916133;29;20282;-87
2023/07/29 04:14:56;;;;;;;14.85;7.55;;;18.90;99.90;;;;;;4916692;29;20191;-91
2023/07/29 04:17:22;;;;;;;13.45;7.80;;;18.90;99.90;;;;;;4916911;29;20224;-91
2023/07/29 04:19:48;;;;;;;10.45;7.95;;;18.90;99.90;;;;;;4916790;29;20196;-91
2023/07/29 04:22:15;;;;;;;14.48;8.10;;;18.90;99.90;;;;;;4911138;29;20180;-89
2023/07/29 04:24:41;;;;;;;10.15;7.65;;;18.90;99.90;;;;;;4920152;29;20275;-92
2023/07/29 04:27:07;;;;;;;9.93;7.25;;;18.90;99.90;;;;;;4924434;29;20282;-91
2023/07/29 04:29:33;;;;;;;11.18;7.25;;;18.90;99.90;;;;;;4921098;29;20189;-92
2023/07/29 04:31:58;;;;;;;12.57;7.68;;;18.90;99.90;;;;;;4919610;29;20199;-92
2023/07/29 04:34:25;;;;;;;12.40;7.57;;;18.90;99.90;;;;;;4920823;29;20265;-89
2023/07/29 04:36:50;;;;;;;10.07;6.85;;;18.90;99.90;;;;;;4901822;29;20282;-91
2023/07/29 04:39:17;;;;;;;10.57;7.22;;;18.90;99.90;;;;;;4919331;29;20195;-89
2023/07/29 04:41:43;;;;;;;16.35;7.07;;;18.90;99.90;;;;;;4905367;29;20215;-91
2023/07/29 04:44:09;;;;;;;8.80;6.45;;;18.90;99.90;;;;;;4928949;29;20224;-90
2023/07/29 04:46:36;;;;;;;11.45;6.75;;;18.90;99.90;;;;;;4926996;29;20184;-90
2023/07/29 04:49:02;;;;;;;10.55;5.85;;;18.90;99.90;;;;;;4921579;29;20198;-92
2023/07/29 04:51:28;;;;;;;7.90;5.65;;;18.90;99.90;;;;;;4922494;29;20251;-91
2023/07/29 04:53:54;;;;;;;9.80;5.72;;;18.80;99.90;;;;;;4922202;29;20211;-92
2023/07/29 04:56:20;;;;;;;12.27;5.50;;;18.90;99.90;;;;;;4918337;29;20184;-91
2023/07/29 04:58:46;;;;;;;7.72;5.07;;;18.90;99.90;;;;;;4918191;29;20220;-88
2023/07/29 05:01:12;;;;;;;7.15;4.70;;;18.90;99.90;;;;;;4919991;29;20195;-92
2023/07/29 05:03:39;;;;;;;7.90;4.47;;;18.90;99.90;;;;;;4906403;29;20239;-91
2023/07/29 05:06:05;;;;;;;8.27;4.60;;;18.90;99.90;;;;;;4909844;29;20243;-90
2023/07/29 05:08:31;;;;;;;9.57;4.70;;;18.90;99.90;;;;;;4899833;29;20191;-92
2023/07/29 05:10:57;;;;;;;8.82;4.25;;;18.90;99.90;;;;;;4919059;29;20681;-94
2023/07/29 05:13:23;;;;;;;6.85;4.53;;;18.90;99.90;;;;;;4921107;29;20227;-89
2023/07/29 05:15:50;;;;;;;6.50;4.13;;;18.90;99.90;;;;;;4919266;29;20607;-90
2023/07/29 05:18:17;;;;;;;10.80;4.70;;;18.90;99.90;;;;;;4911779;29;20291;-90
2023/07/29 05:20:43;;;;;;;9.43;4.10;;;18.90;99.90;;;;;;4928467;29;20234;-89
2023/07/29 05:23:09;;;;;;;7.10;4.03;;;19.00;99.90;;;;;;4918391;29;20195;-92
2023/07/29 05:25:35;;;;;;;7.90;3.90;;;19.00;99.90;;;;;;4917250;29;20648;-89
2023/07/29 05:28:02;;;;;;;6.82;3.28;;;19.00;99.90;;;;;;4898139;29;20180;-87
2023/07/29 05:30:30;;;;;;;7.35;3.67;;;19.00;99.90;;;;;;4916883;29;20188;-89
2023/07/29 05:32:57;;;;;;;8.82;3.63;;;19.00;99.90;;;;;;4917534;29;20180;-89
2023/07/29 05:35:24;;;;;;;12.60;3.80;;;19.00;99.90;;;;;;4901395;29;20212;-93
2023/07/29 05:37:50;;;;;;;8.30;3.60;;;19.00;99.90;;;;;;4927967;29;20236;-87
2023/07/29 05:40:16;;;;;;;7.03;3.63;;;19.00;99.90;;;;;;4916824;29;20227;-90
2023/07/29 05:42:43;;;;;;;7.15;3.55;;;19.00;99.90;;;;;;4912953;29;20196;-92
2023/07/29 05:45:10;;;;;;;7.45;3.50;;;19.00;99.90;;;;;;4916018;29;20630;-94
2023/07/29 05:47:36;;;;;;;6.05;3.38;;;19.00;99.90;;;;;;4912726;29;20190;-90
2023/07/29 05:50:04;;;;;;;7.05;3.80;;;19.00;99.90;;;;;;4917956;29;20176;-90
2023/07/29 05:52:33;;;;;;;7.50;3.60;;;19.00;99.90;;;;;;4921516;29;20263;-91
2023/07/29 05:54:59;;;;;;;9.10;3.95;;;19.00;99.90;;;;;;4916567;29;20180;-90
2023/07/29 05:57:25;;;;;;;9.27;3.50;;;19.00;99.90;;;;;;4925904;29;20290;-89
2023/07/29 05:59:51;;;;;;;6.20;3.65;;;19.10;99.90;;;;;;4919335;29;20624;-90
2023/07/29 06:02:17;;;;;;;8.27;3.67;;;19.00;99.90;;;;;;4917955;29;20207;-88
2023/07/29 06:04:44;;;;;;;6.13;3.83;;;19.10;99.90;;;;;;4919377;29;20231;-91
2023/07/29 06:07:10;;;;;;;8.82;3.92;;;19.10;99.90;;;;;;4918272;29;20274;-92
2023/07/29 06:09:36;;;;;;;10.25;3.97;;;19.00;99.90;;;;;;4906005;29;20179;-89
2023/07/29 06:12:02;;;;;;;8.15;3.58;;;19.10;99.90;;;;;;4914261;29;20437;-91
2023/07/29 06:14:28;;;;;;;9.55;3.67;;;19.00;99.90;;;;;;4929794;29;20601;-88
2023/07/29 06:16:53;;;;;;;6.03;3.70;;;19.10;99.90;;;;;;4915716;29;20319;-89
2023/07/29 06:19:20;;;;;;;11.40;3.65;;;19.10;99.90;;;;;;4914124;29;20770;-93
2023/07/29 06:21:46;;;;;;;7.97;3.92;;;19.10;99.90;;;;;;4914321;29;20176;-88
2023/07/29 06:24:12;;;;;;;7.47;4.22;;;19.10;99.90;;;;;;4934086;29;20243;-93
2023/07/29 06:26:38;;;;;;;6.28;3.75;;;19.10;99.90;;;;;;4918100;29;20185;-92
2023/07/29 06:29:04;;;;;;;8.10;4.00;;;19.10;99.90;;;;;;4903958;29;20255;-88
2023/07/29 06:31:32;;;;;;;7.22;3.72;;;19.10;99.90;;;;;;4918988;29;20184;-87
2023/07/29 06:33:58;;;;;;;8.23;4.10;;;19.20;99.90;;;;;;4916127;29;20220;-89
2023/07/29 06:36:24;;;;;;;10.80;3.75;;;19.20;99.90;;;;;;4904935;29;20183;-92
2023/07/29 06:38:53;;;;;;;9.38;3.90;;;19.30;99.90;;;;;;4920364;29;20209;-89
2023/07/29 06:41:19;;;;;;;11.70;4.00;;;19.30;99.90;;;;;;4929485;29;20215;-93
2023/07/29 06:43:45;;;;;;;6.80;3.83;;;19.40;99.90;;;;;;4924532;29;20248;-91
2023/07/29 06:46:10;;;;;;;8.43;4.00;;;19.50;99.90;;;;;;4932553;29;20192;-91
2023/07/29 06:48:36;;;;;;;9.30;3.63;;;19.50;99.90;;;;;;4916990;29;20193;-88
2023/07/29 06:51:02;;;;;;;10.25;3.63;;;19.60;99.90;;;;;;4913847;29;20657;-89
2023/07/29 06:53:28;;;;;;;8.65;3.97;;;19.60;99.90;;;;;;4906323;29;20184;-89
2023/07/29 06:55:54;;;;;;;9.80;4.13;;;19.60;99.90;;;;;;4905533;29;20199;-85
2023/07/29 06:58:20;;;;;;;11.05;3.90;;;19.70;99.90;;;;;;4898568;29;20295;-94
2023/07/29 07:00:46;;;;;;;9.48;3.90;;;19.70;99.90;;;;;;4933494;29;20263;-90
2023/07/29 07:03:12;;;;;;;9.50;4.65;;;19.80;99.90;;;;;;4917725;29;20681;-89
2023/07/29 07:05:38;;;;;;;10.15;3.88;;;19.80;99.90;;;;;;4915725;29;20235;-90
2023/07/29 07:08:03;;;;;;;13.20;4.75;;;19.80;99.90;;;;;;4926721;29;20207;-91
2023/07/29 07:10:29;;;;;;;11.02;4.20;;;19.90;99.90;;;;;;4932788;29;20655;-91
2023/07/29 07:12:55;;;;;;;7.55;4.20;;;19.90;99.90;;;;;;4913757;29;20701;-90
2023/07/29 07:15:21;;;;;;;11.20;4.00;;;19.90;99.90;;;;;;4918805;29;20180;-93
2023/07/29 07:17:47;;;;;;;15.02;4.85;;;20.00;99.90;;;;;;4935150;29;20208;-89
2023/07/29 07:20:13;;;;;;;8.15;4.25;;;20.00;99.90;;;;;;4919266;29;20566;-91
2023/07/29 07:22:39;;;;;;;10.30;4.00;;;20.10;99.90;;;;;;4902683;29;20180;-90
2023/07/29 07:25:05;;;;;;;13.95;4.10;;;20.10;99.90;;;;;;4917473;29;20180;-90
2023/07/29 07:27:31;;;;;;;8.70;4.25;;;20.10;99.90;;;;;;4918702;29;20278;-89
2023/07/29 07:29:56;;;;;;;10.00;4.90;;;20.20;99.90;;;;;;4901230;29;20291;-89
2023/07/29 07:32:22;;;;;;;11.63;4.03;;;20.10;99.90;;;;;;4917206;29;20188;-91
2023/07/29 07:34:48;;;;;;;12.82;4.20;;;20.10;99.90;;;;;;4917084;29;20259;-91
2023/07/29 07:37:14;;;;;;;12.35;4.88;;;20.20;99.90;;;;;;4918387;29;20608;-88
2023/07/29 07:39:39;;;;;;;8.20;4.40;;;20.20;99.90;;;;;;4916399;29;20184;-91
2023/07/29 07:42:06;;;;;;;8.85;4.72;;;20.20;99.90;;;;;;4911255;29;20188;-91
2023/07/29 07:44:31;;;;;;;9.95;4.30;;;20.20;99.90;;;;;;4913937;29;20211;-91
2023/07/29 07:46:57;;;;;;;7.63;4.65;;;20.20;99.90;;;;;;4918574;29;20191;-89
2023/07/29 07:49:23;;;;;;;10.40;4.72;;;20.30;99.90;;;;;;4885143;29;20184;-90
2023/07/29 07:51:49;;;;;;;10.07;4.10;;;20.30;99.90;;;;;;4915213;29;20192;-91
2023/07/29 07:54:15;;;;;;;12.52;4.40;;;20.30;99.90;;;;;;4904978;29;20279;-90
2023/07/29 07:56:41;;;;;;;11.63;4.53;;;20.40;99.90;;;;;;4918051;29;20203;-90
2023/07/29 07:59:08;;;;;;;13.88;4.38;;;20.40;99.90;;;;;;4925082;29;20179;-90
2023/07/29 08:01:38;;;;;;;11.27;4.22;;;20.50;99.90;;;;;;4923491;29;20641;-89
2023/07/29 08:04:04;;;;;;;13.00;4.40;;;20.50;99.90;;;;;;4920528;29;20236;-90
2023/07/29 08:06:31;;;;;;;13.10;4.40;;;20.60;99.90;;;;;;4917496;29;20235;-89
2023/07/29 08:08:57;;;;;;;8.20;4.28;;;20.70;99.90;;;;;;4922700;29;20211;-90
2023/07/29 08:11:23;;;;;;;12.32;4.10;;;20.80;99.90;;;;;;4919957;29;20881;-93
2023/07/29 08:13:49;;;;;;;10.13;4.35;;;20.80;99.90;;;;;;4916738;29;20192;-88
2023/07/29 08:16:15;;;;;;;8.90;4.25;;;21.00;99.90;;;;;;4918857;29;20203;-86
2023/07/29 08:18:41;;;;;;;7.30;3.97;;;21.00;99.90;;;;;;4916180;29;20284;-88
2023/07/29 08:21:07;;;;;;;9.77;4.13;;;21.10;99.90;;;;;;4915871;29;20275;-85
2023/07/29 08:23:35;;;;;;;8.32;4.10;;;21.10;99.90;;;;;;4901797;29;20199;-88
2023/07/29 08:26:04;;;;;;;9.05;3.80;;;21.10;99.90;;;;;;4919275;29;20192;-89
2023/07/29 08:28:33;;;;;;;11.50;3.90;;;21.10;99.90;;;;;;4919110;29;20271;-89
2023/07/29 08:31:00;;;;;;;8.52;3.83;;;21.20;99.90;;;;;;4919097;29;20188;-95
2023/07/29 08:33:25;;;;;;;10.85;3.90;;;21.20;99.90;;;;;;4911465;29;20188;-94
2023/07/29 08:35:51;;;;;;;12.18;3.35;;;21.30;99.90;;;;;;4920530;29;20190;-92
2023/07/29 08:38:17;;;;;;;11.75;3.42;;;21.40;99.90;;;;;;4918449;29;20712;-89
2023/07/29 08:41:09;;;;;;;7.38;3.28;;;21.50;99.90;;;;;;4943210;29;20227;-92
2023/07/29 08:43:39;;;;;;;11.48;3.20;;;21.60;99.90;;;;;;4910285;29;20191;-90
2023/07/29 08:46:06;;;;;;;8.05;3.13;;;21.60;99.90;;;;;;4920977;29;20183;-92
2023/07/29 08:48:35;;;;;;;6.00;3.13;;;21.50;99.90;;;;;;4915496;29;20192;-91
2023/07/29 08:51:03;;;;;;;7.15;2.70;;;21.40;99.90;;;;;;4922167;29;20176;-89
2023/07/29 08:53:31;;;;;;;9.73;3.10;;;21.40;99.90;;;;;;4928329;29;20618;-92
2023/07/29 08:55:57;;;;;;;9.63;2.88;;;21.30;99.90;;;;;;4908576;29;20212;-88
2023/07/29 08:58:24;;;;;;;6.68;2.85;;;21.30;99.90;;;;;;4919442;29;20215;-92
2023/07/29 09:00:51;;;;;;;6.20;2.95;;;21.20;99.90;;;;;;4920780;29;20195;-88
2023/07/29 09:03:16;;;;;;;11.88;2.83;;;21.30;99.90;;;;;;4903577;29;20200;-89
2023/07/29 09:05:43;;;;;;;10.32;2.90;;;21.30;99.90;;;;;;4928922;29;20235;-91
2023/07/29 09:08:09;;;;;;;7.03;2.70;;;21.30;99.90;;;;;;4901373;29;20189;-90
2023/07/29 09:10:37;;;;;;;5.05;2.28;;;21.40;99.90;;;;;;4921306;29;20188;-91
2023/07/29 09:13:03;;;;;;;6.47;2.83;;;21.50;99.90;;;;;;4933513;29;20188;-87
2023/07/29 09:15:31;;;;;;;5.43;2.28;;;21.70;99.90;;;;;;4935819;29;20188;-92
2023/07/29 09:17:58;;;;;;;6.90;2.50;;;21.80;99.90;;;;;;4927057;29;20208;-93
2023/07/29 09:20:25;;;;;;;7.55;2.40;;;21.90;99.90;;;;;;4929006;29;20192;-92
2023/07/29 09:22:51;;;;;;;5.65;2.10;;;21.90;99.90;;;;;;4939133;29;20279;-88
2023/07/29 09:25:24;;;;;;;4.82;2.40;;;21.90;99.90;;;;;;4920849;29;20822;-88
2023/07/29 09:27:49;;;;;;;3.97;2.10;;;21.90;99.90;;;;;;4916905;29;20220;-90
2023/07/29 09:30:17;;;;;;;7.15;2.45;;;21.90;99.90;;;;;;4897104;29;20660;-93
2023/07/29 09:32:42;;;;;;;4.95;2.20;;;21.90;99.90;;;;;;4918555;29;20184;-90
2023/07/29 09:35:12;;;;;;;10.27;2.70;;;22.00;99.90;;;;;;4910543;29;20184;-88
2023/07/29 09:37:39;;;;;;;4.68;2.15;;;22.00;99.90;;;;;;4918238;29;20207;-93
2023/07/29 09:40:06;;;;;;;4.72;2.08;;;22.10;99.90;;;;;;4914412;29;20357;-91
2023/07/29 09:42:32;;;;;;;6.10;2.25;;;22.30;99.90;;;;;;4909501;29;21809;-89
2023/07/29 09:44:58;;;;;;;4.65;2.00;;;22.40;99.90;;;;;;4913584;29;20662;-91
2023/07/29 09:47:26;;;;;;;6.95;2.10;;;22.40;99.90;;;;;;4915507;29;20336;-95
2023/07/29 09:49:53;;;;;;;3.67;1.77;;;22.50;99.90;;;;;;4909069;29;20252;-88
2023/07/29 09:52:23;;;;;;;4.88;2.15;;;22.50;99.90;;;;;;4934977;29;20180;-91
2023/07/29 09:54:49;;;;;;;4.72;1.60;;;22.60;99.90;;;;;;4919428;29;20558;-91
2023/07/29 09:57:17;;;;;;;2.97;1.70;;;22.60;99.90;;;;;;4917984;29;20303;-90
2023/07/29 09:59:56;;;;;;;5.25;1.70;;;22.70;99.90;;;;;;4923557;29;20199;-92
2023/07/29 10:02:30;;;;;;;4.13;1.60;;;22.70;99.90;;;;;;4919326;29;20198;-92
2023/07/29 10:04:57;;;;;;;6.05;1.80;;;22.80;99.90;;;;;;4917943;29;20231;-89
2023/07/29 10:07:24;;;;;;;4.35;1.60;;;22.90;99.90;;;;;;4922562;29;20315;-88
2023/07/29 10:09:52;;;;;;;6.85;2.00;;;23.00;99.90;;;;;;4926820;29;20191;-91
2023/07/29 10:12:19;;;;;;;7.55;1.88;;;23.00;99.90;;;;;;4914829;29;20184;-90
2023/07/29 10:14:48;;;;;;;5.47;1.77;;;23.10;99.90;;;;;;4921032;29;20254;-89
2023/07/29 10:17:16;;;;;;;4.13;1.55;;;23.20;99.90;;;;;;4916895;29;20216;-89
2023/07/29 10:19:44;;;;;;;4.60;1.90;;;23.30;99.90;;;;;;4914210;29;20188;-90
2023/07/29 10:22:16;;;;;;;6.32;1.85;;;23.40;99.90;;;;;;4912589;29;20231;-89
2023/07/29 10:24:44;;;;;;;3.83;1.73;;;23.40;99.90;;;;;;4915486;29;20183;-88
2023/07/29 10:27:14;;;;;;;4.70;1.80;;;23.50;99.90;;;;;;4917901;29;20264;-91
2023/07/29 10:29:43;;;;;;;4.65;1.80;;;23.50;99.90;;;;;;4916144;29;20207;-89
2023/07/29 10:32:13;;;;;;;8.07;1.77;;;23.50;99.90;;;;;;4899212;29;20204;-89
2023/07/29 10:34:39;;;;;;;5.50;2.15;;;23.50;99.90;;;;;;4929049;29;20661;-89
2023/07/29 10:37:06;;;;;;;4.47;1.88;;;23.50;99.90;;;;;;4916921;29;20634;-89
2023/07/29 10:39:39;;;;;;;6.45;1.90;;;23.50;99.90;;;;;;4916761;29;20187;-88
2023/07/29 10:42:06;;;;;;;5.57;1.80;;;23.50;99.90;;;;;;4921921;29;20184;-89
2023/07/29 10:44:51;;;;;;;4.80;1.60;;;23.60;99.90;;;;;;4916828;29;20208;-87
2023/07/29 10:47:18;;;;;;;6.22;1.70;;;23.70;99.90;;;;;;4913326;29;20183;-89
2023/07/29 10:49:46;;;;;;;7.72;1.70;;;23.70;99.90;;;;;;4905998;29;20258;-89
2023/07/29 10:52:15;;;;;;;3.65;1.60;;;23.70;99.90;;;;;;4915266;29;20199;-89
2023/07/29 10:54:45;;;;;;;2.90;1.40;;;23.80;99.90;;;;;;4916401;29;20184;-88
2023/07/29 10:57:15;;;;;;;2.55;1.35;;;23.80;99.90;;;;;;4915912;29;20226;-88
2023/07/29 10:59:54;;;;;;;5.40;1.98;;;23.80;99.90;;;;;;4917838;29;20212;-89
2023/07/29 11:02:20;;;;;;;3.97;1.50;;;23.80;99.90;;;;;;4886259;29;20662;-89
2023/07/29 11:04:47;;;;;;;5.38;1.75;;;23.80;99.90;;;;;;4916049;29;20219;-89
2023/07/29 11:07:13;;;;;;;4.40;1.80;;;23.80;99.90;;;;;;4917338;29;20203;-89
2023/07/29 11:09:51;;;;;;;5.10;1.80;;;23.80;99.90;;;;;;4917530;29;20180;-89
2023/07/29 11:12:47;;;;;;;4.88;2.03;;;23.80;99.90;;;;;;4915434;29;20251;-90
2023/07/29 11:15:25;;;;;;;4.85;1.95;;;23.80;99.90;;;;;;4914848;29;20188;-89
2023/07/29 11:17:55;;;;;;;3.78;1.88;;;23.70;99.90;;;;;;4916527;29;20211;-88
2023/07/29 11:20:31;;;;;;;4.35;1.65;;;23.70;99.90;;;;;;4917523;29;20238;-88
2023/07/29 11:23:01;;;;;;;5.13;1.75;;;23.60;99.90;;;;;;4909770;29;20634;-88
2023/07/29 11:25:28;;;;;;;3.58;1.45;;;23.40;99.90;;;;;;4902829;29;20379;-89
2023/07/29 11:27:56;;;;;;;2.83;1.40;;;23.40;99.90;;;;;;4915743;29;20554;-89
2023/07/29 11:30:30;;;;;;;2.88;1.17;;;23.20;99.90;;;;;;4932127;29;20187;-88
2023/07/29 11:32:57;;;;;;;3.20;1.30;;;23.10;99.90;;;;;;4917104;29;20184;-87
2023/07/29 11:35:26;;;;;;;3.10;1.48;;;23.00;99.90;;;;;;4917890;29;20187;-90
2023/07/29 11:37:54;;;;;;;2.40;1.38;;;23.00;99.90;;;;;;4908872;29;20359;-88
2023/07/29 11:40:27;;;;;;;4.40;1.60;;;22.90;99.90;;;;;;4932960;29;20187;-89
2023/07/29 11:42:54;;;;;;;3.53;1.65;;;23.00;99.90;;;;;;4915703;29;20183;-87
2023/07/29 11:45:23;;;;;;;4.85;1.75;;;23.00;99.90;;;;;;4917636;29;20180;-89
2023/07/29 11:47:52;;;;;;;4.45;1.90;;;23.00;99.90;;;;;;4876172;29;20621;-89
2023/07/29 11:50:18;;;;;;;6.20;1.80;;;23.10;99.90;;;;;;4914507;29;20248;-88
2023/07/29 11:52:46;;;;;;;8.43;1.60;;;23.20;99.90;;;;;;4901511;29;20191;-89
2023/07/29 11:55:15;;;;;;;8.00;2.25;;;23.20;99.90;;;;;;4916638;29;20237;-86
2023/07/29 11:57:42;;;;;;;3.85;1.77;;;23.20;99.90;;;;;;4919494;29;20204;-90
2023/07/29 12:00:12;;;;;;;7.93;1.90;;;23.30;99.90;;;;;;4930138;29;20192;-89
2023/07/29 12:02:40;;;;;;;9.70;1.90;;;23.40;99.90;;;;;;4925394;29;20196;-91
2023/07/29 12:05:07;;;;;;;3.55;1.70;;;23.50;99.90;;;;;;4916916;29;20251;-91
2023/07/29 12:07:36;;;;;;;5.93;1.95;;;23.50;99.90;;;;;;4917813;29;20195;-89
2023/07/29 12:10:03;;;;;;;6.45;2.42;;;23.40;99.90;;;;;;4916697;29;20274;-85
2023/07/29 12:12:29;;;;;;;7.07;2.58;;;23.40;99.90;;;;;;4916878;29;20180;-91
2023/07/29 12:14:55;;;;;;;6.13;2.15;;;23.30;99.90;;;;;;4916893;29;20184;-87
2023/07/29 12:17:21;;;;;;;5.72;2.50;;;23.30;99.90;;;;;;4915770;29;20219;-95
2023/07/29 12:19:47;;;;;;;5.75;2.25;;;23.20;99.90;;;;;;4918752;29;20259;-93
2023/07/29 12:22:18;;;;;;;5.78;2.50;;;23.10;99.90;;;;;;4911582;29;20559;-91
2023/07/29 12:24:44;;;;;;;4.35;2.60;;;23.10;99.90;;;;;;4919066;29;20192;-90
2023/07/29 12:27:12;;;;;;;6.43;2.83;;;23.10;99.90;;;;;;4921465;29;20192;-92
2023/07/29 12:29:46;;;;;;;3.97;2.13;;;23.10;99.90;;;;;;4926725;29;20185;-91
2023/07/29 12:32:12;;;;;;;9.38;2.05;;;23.20;99.90;;;;;;4917315;29;20203;-90
2023/07/29 12:34:39;;;;;;;4.22;2.00;;;23.20;99.90;;;;;;4915772;29;20199;-89
2023/07/29 12:37:06;;;;;;;3.92;2.05;;;23.30;99.90;;;;;;4932479;29;20676;-89
2023/07/29 12:39:36;;;;;;;5.63;2.20;;;23.30;99.90;;;;;;4914997;29;20183;-94
2023/07/29 12:42:03;;;;;;;5.63;2.15;;;23.30;99.90;;;;;;4923000;29;20207;-89
2023/07/29 12:44:34;;;;;;;3.85;2.13;;;23.30;99.90;;;;;;4924633;29;20188;-88